Accueil
METAR-TAF:

METAR-TAF

Aéroports :

Aéroport international de Praia

Praia, Cap-Vert

latitude: 14-55-27N, longitude: 23-29-38W, altitude: 70 m

Observation

Le bulletin a été fait il y a 23 minutes, à 18:00 UTC
Vent 16 kt de nord/nord-est
Température 27°C
Humidité 45%
Pression 1013 hPa
Visibilité 10 km ou plus
pas de nuages en-dessous de 1500 mètres et pas de cumulonimbus.

METAR: GVNP 241800Z 03016KT CAVOK 27/14 Q1013 NOSIG

Heure: 17:23 (18:23 UTC)

Prévision

Le bulletin a été fait il y a 1 heure et 23 minutes, à 17:00 UTC
Prévision valable du 24 à 18 UTC au 25 à 24 UTC
Vent 15 kt de nord/nord-est
Visibilité 10 km ou plus
pas de nuages en-dessous de 1500 mètres et pas de cumulonimbus.

TAF: GVNP 241700Z 2418/2524 03015KT CAVOK

Observations et prévisions météorologiques de plus de 4000 aéroports (messages METAR et TAF).

Les stations disponibles sont représentées par des disques jaunes et rouges sur la carte.

Passer la souris dessus pour voir le nom de la station.

Cliquer dessus pour voir les observations et prévisions météorologiques.

Pour changer de carte: cliquez sur les boutons verts avec une croix noire pour zoomer, sur le bouton vert avec un tiret pour effectuer un zoom arrière, ou sur les flèches vertes pour les cartes adjacentes.


METAR-TAF: